Airfield :







YOU CAN JOIN US ON...

 
LOGIN :

Register | Disclaimer

   EN    FR    IT 

 









Legend :    VFR   Marginal VFR   IFR   Intensive IFR   Very Intensive IFR
Visi :
Ceiling :
>= 8 km
>= 3000ft
5 to 8 km
1000 to 3000 ft
1500m to 5 km
500 to 1000 ft
800 to 1500m
200 to 500 ft
< 800m
< 200 ft
Symbols :   Thunderstorms  Fog  Heavy snow  Heavy precipitations  Wind > 20 kt






- Airport Elevation : 90 ft
- IATA code : YHU


CYHU - Montréal Saint-Hubert

CURRENT METAR :
  • 290400Z AUTO 22008KT 9SM OVC060 07/03 A2989 RMK SLP123

EXPIRED METARs :
  • 290300Z AUTO 23010KT 9SM OVC060 08/03 A2988 RMK SLP121
  • 290200Z AUTO 24011G16KT 9SM FEW037 BKN065 07/05 A2988 RMK SLP120

TAF TAF CYHU
Valid from the 29 at 00:00 until the 30 at 00:00 UTC


282339Z 2900/2924 23012G22KT P6SM BKN030
TEMPO 2900/2906 BKN020
BECMG 2902/2904 27010KT
FM290600 26010KT P6SM BKN030 BKN120
BECMG 2910/2912 31008KT
BECMG 2914/2916 03006KT RMK FCST BASED ON AUTO OBS. NXT FCST BY 290600Z
CZUL FIR / North America



MET'MAP, your aeronautical weather chart ! - Copyright ORBIFLY December 2007 - Disclaimer

ORBIFLY MET'MAP TEAM :

Programming & Development : Alexandra Zaïnal
Concept & original design : Baudouin d'Aumeries
Assistance for programming : Marc-Olivier Méhu
Technical & hardware support : Manuel Goepfert

Contact : metmap@orbifly.com




SOURCES & CREDITS :

   NOAA